Time;durP1;ratioP1;P1;durP2;ratioP2;P2;SDS_P1;SDS_P2;PMS_P1;PMS_P2;Temp;Humidity;BMP_temperature;BMP_pressure;BME280_temperature;BME280_humidity;BME280_pressure;Samples;Min_cycle;Max_cycle;Signal;HPM_P1;HPM_P2
2022/03/23 00:00:10;;;;;;;65.13;39.10;;;8.00;99.90;;;;;;4951683;28;22700;-85
2022/03/23 00:02:37;;;;;;;64.60;38.55;;;7.90;99.90;;;;;;4974459;28;20050;-85
2022/03/23 00:05:03;;;;;;;64.55;41.63;;;7.80;99.90;;;;;;4941917;28;101231;-86
2022/03/23 00:07:29;;;;;;;70.72;42.20;;;7.80;99.90;;;;;;4995496;28;20072;-86
2022/03/23 00:09:55;;;;;;;65.43;40.70;;;7.80;99.90;;;;;;4937868;28;160920;-85
2022/03/23 00:12:21;;;;;;;64.15;39.65;;;7.80;99.90;;;;;;4986642;28;20439;-85
2022/03/23 00:14:47;;;;;;;69.03;43.55;;;7.70;99.90;;;;;;4958038;28;164430;-85
2022/03/23 00:17:13;;;;;;;70.60;45.20;;;7.70;99.90;;;;;;4980598;28;20062;-86
2022/03/23 00:19:40;;;;;;;67.97;42.00;;;7.70;99.90;;;;;;4948130;28;55851;-86
2022/03/23 00:22:06;;;;;;;63.83;41.75;;;7.60;99.90;;;;;;4969722;28;20046;-86
2022/03/23 00:24:32;;;;;;;64.88;42.35;;;7.60;99.90;;;;;;4948581;28;72732;-86
2022/03/23 00:26:58;;;;;;;65.20;41.95;;;7.60;99.90;;;;;;4996377;28;20054;-85
2022/03/23 00:29:24;;;;;;;64.45;42.05;;;7.50;99.90;;;;;;4939850;28;223228;-87
2022/03/23 00:31:51;;;;;;;69.03;42.97;;;7.50;99.90;;;;;;4989438;28;20057;-85
2022/03/23 00:34:17;;;;;;;67.68;43.83;;;7.50;99.90;;;;;;4966656;28;236833;-86
2022/03/23 00:36:43;;;;;;;72.82;43.65;;;7.40;99.90;;;;;;4964107;28;20444;-85
2022/03/23 00:39:09;;;;;;;74.22;43.63;;;7.40;99.90;;;;;;4967706;28;253390;-85
2022/03/23 00:41:35;;;;;;;67.28;42.20;;;7.30;99.90;;;;;;4957693;28;20042;-85
2022/03/23 00:44:03;;;;;;;74.17;45.33;;;7.30;99.90;;;;;;4963759;28;266714;-86
2022/03/23 00:46:30;;;;;;;70.72;44.58;;;7.30;99.90;;;;;;4968752;28;20060;-86
2022/03/23 00:48:56;;;;;;;70.85;44.08;;;7.30;99.90;;;;;;4964754;28;269109;-86
2022/03/23 00:51:23;;;;;;;69.20;44.35;;;7.30;99.90;;;;;;4928004;28;20050;-86
2022/03/23 00:53:49;;;;;;;78.88;47.13;;;7.20;99.90;;;;;;4980535;28;247048;-86
2022/03/23 00:56:16;;;;;;;77.32;45.13;;;7.30;99.90;;;;;;4964109;28;20089;-86
2022/03/23 00:58:42;;;;;;;77.43;46.47;;;7.20;99.90;;;;;;4980139;28;20051;-86
2022/03/23 01:01:08;;;;;;;86.13;49.33;;;7.20;99.90;;;;;;4948344;28;187429;-87
2022/03/23 01:03:34;;;;;;;70.88;46.78;;;7.20;99.90;;;;;;4981750;28;20042;-86
2022/03/23 01:06:00;;;;;;;72.30;45.90;;;7.20;99.90;;;;;;4919029;28;165452;-85
2022/03/23 01:08:27;;;;;;;76.30;45.65;;;7.10;99.90;;;;;;4983279;28;20054;-85
2022/03/23 01:10:53;;;;;;;81.03;47.40;;;7.10;99.90;;;;;;4946838;28;123658;-85
2022/03/23 01:13:20;;;;;;;67.88;43.92;;;7.10;99.90;;;;;;4982583;28;20054;-85
2022/03/23 01:15:46;;;;;;;71.10;44.28;;;7.00;99.90;;;;;;4924506;28;46492;-85
2022/03/23 01:18:13;;;;;;;72.45;47.55;;;7.00;99.90;;;;;;4995503;28;20684;-86
2022/03/23 01:20:39;;;;;;;65.78;42.70;;;6.90;99.90;;;;;;4955546;28;131958;-86
2022/03/23 01:23:05;;;;;;;69.97;44.60;;;6.90;99.90;;;;;;5000505;28;20052;-86
2022/03/23 01:25:31;;;;;;;80.82;47.13;;;6.90;99.90;;;;;;4940184;28;173546;-86
2022/03/23 01:27:57;;;;;;;77.32;46.03;;;6.90;99.90;;;;;;4983282;28;20392;-86
2022/03/23 01:30:23;;;;;;;74.38;47.47;;;6.80;99.90;;;;;;4942165;28;161499;-86
2022/03/23 01:32:49;;;;;;;74.03;44.85;;;6.80;99.90;;;;;;5007379;28;20060;-86
2022/03/23 01:35:16;;;;;;;74.80;46.80;;;6.80;99.90;;;;;;4942162;28;221328;-86
2022/03/23 01:37:43;;;;;;;82.43;48.88;;;6.80;99.90;;;;;;5009582;28;20050;-86
2022/03/23 01:40:11;;;;;;;80.43;48.92;;;6.70;99.90;;;;;;4953130;28;107248;-86
2022/03/23 01:42:39;;;;;;;84.95;50.35;;;6.70;99.90;;;;;;4971322;28;20499;-86
2022/03/23 01:45:08;;;;;;;70.43;44.47;;;6.70;99.90;;;;;;4943819;28;143653;-87
2022/03/23 01:47:35;;;;;;;71.43;43.28;;;6.60;99.90;;;;;;4983368;28;20069;-87
2022/03/23 01:50:04;;;;;;;72.93;45.80;;;6.60;99.90;;;;;;4967676;28;27521;-87
2022/03/23 01:52:32;;;;;;;79.30;47.53;;;6.60;99.90;;;;;;4983003;28;20053;-87
2022/03/23 01:55:01;;;;;;;76.55;48.15;;;6.60;99.90;;;;;;4942559;28;166118;-87
2022/03/23 01:57:29;;;;;;;79.07;48.58;;;6.60;99.90;;;;;;5001695;28;20058;-86
2022/03/23 01:59:56;;;;;;;81.97;50.42;;;6.50;99.90;;;;;;4955405;28;105155;-86
2022/03/23 02:02:22;;;;;;;97.93;52.47;;;6.50;99.90;;;;;;4971134;28;20060;-86
2022/03/23 02:04:48;;;;;;;86.38;51.17;;;6.50;99.90;;;;;;4939613;28;162846;-86
2022/03/23 02:07:14;;;;;;;84.35;52.40;;;6.50;99.90;;;;;;4984723;28;20050;-86
2022/03/23 02:09:41;;;;;;;89.05;52.17;;;6.50;99.90;;;;;;4935922;28;275900;-86
2022/03/23 02:12:08;;;;;;;82.78;50.60;;;6.40;99.90;;;;;;4981266;28;20049;-86
2022/03/23 02:14:35;;;;;;;92.57;53.15;;;6.40;99.90;;;;;;4978241;28;231678;-86
2022/03/23 02:17:02;;;;;;;100.50;56.13;;;6.40;99.90;;;;;;5000916;28;20062;-86
2022/03/23 02:19:28;;;;;;;88.50;51.20;;;6.40;99.90;;;;;;4981748;28;20063;-86
2022/03/23 02:21:55;;;;;;;95.63;56.22;;;6.30;99.90;;;;;;5012656;28;20058;-86
2022/03/23 02:24:23;;;;;;;91.45;55.42;;;6.30;99.90;;;;;;4968119;28;147911;-86
2022/03/23 02:26:50;;;;;;;91.00;54.78;;;6.30;99.90;;;;;;4976967;28;20078;-85
2022/03/23 02:29:18;;;;;;;88.90;52.70;;;6.30;99.90;;;;;;4974724;28;222804;-86
2022/03/23 02:31:44;;;;;;;93.20;53.65;;;6.30;99.90;;;;;;4955988;28;20096;-86
2022/03/23 02:34:10;;;;;;;90.28;53.85;;;6.20;99.90;;;;;;4971970;28;273548;-86
2022/03/23 02:36:36;;;;;;;93.20;57.55;;;6.20;99.90;;;;;;4963657;28;20049;-85
2022/03/23 02:39:03;;;;;;;89.53;54.20;;;6.20;99.90;;;;;;4968440;28;260642;-86
2022/03/23 02:41:29;;;;;;;92.95;54.35;;;6.20;99.90;;;;;;4960601;28;20052;-86
2022/03/23 02:43:55;;;;;;;89.80;53.38;;;6.20;99.90;;;;;;4979778;28;265526;-86
2022/03/23 02:46:22;;;;;;;96.72;55.33;;;6.10;99.90;;;;;;4938382;28;20053;-86
2022/03/23 02:48:51;;;;;;;92.97;54.33;;;6.10;99.90;;;;;;4972674;28;273141;-86
2022/03/23 02:51:18;;;;;;;90.30;54.63;;;6.10;99.90;;;;;;4929411;28;20479;-86
2022/03/23 03:02:35;;;;;;;93.82;53.65;;;5.90;99.90;;;;;;4992463;28;20042;-86
2022/03/23 03:05:03;;;;;;;91.82;55.10;;;5.90;99.90;;;;;;4926850;28;115214;-86
2022/03/23 03:08:44;;;;;;;92.30;55.90;;;5.80;99.90;;;;;;4971149;28;20061;-86
2022/03/23 03:10:15;;;;;;;96.45;57.53;;;5.80;99.90;;;;;;4950585;28;189727;-86
2022/03/23 03:12:42;;;;;;;90.35;53.38;;;5.80;99.90;;;;;;4984559;28;20061;-85
2022/03/23 03:15:12;;;;;;;100.60;56.47;;;5.70;99.90;;;;;;4934961;28;213335;-86
2022/03/23 03:17:39;;;;;;;96.07;55.20;;;5.70;99.90;;;;;;4990378;28;20411;-86
2022/03/23 03:20:06;;;;;;;95.90;55.30;;;5.70;99.90;;;;;;4954228;28;131719;-86
2022/03/23 03:22:38;;;;;;;96.60;55.33;;;5.70;99.90;;;;;;4995009;28;20064;-86
2022/03/23 03:25:11;;;;;;;83.40;50.10;;;5.60;99.90;;;;;;4938660;28;161132;-86
2022/03/23 03:27:40;;;;;;;86.80;49.53;;;5.60;99.90;;;;;;4987954;28;20050;-87
2022/03/23 03:30:10;;;;;;;92.55;52.67;;;5.60;99.90;;;;;;4943267;28;71235;-86
2022/03/23 03:32:37;;;;;;;91.82;53.35;;;5.60;99.90;;;;;;4968242;28;20049;-87
2022/03/23 03:35:04;;;;;;;77.50;49.58;;;5.50;99.90;;;;;;4943899;28;104434;-87
2022/03/23 03:37:31;;;;;;;83.82;50.00;;;5.50;99.90;;;;;;5000495;28;20048;-86
2022/03/23 03:39:57;;;;;;;79.63;48.72;;;5.50;99.90;;;;;;4934439;28;230464;-86
2022/03/23 03:42:23;;;;;;;84.43;51.05;;;5.50;99.90;;;;;;4973093;28;20062;-86
2022/03/23 03:44:50;;;;;;;83.10;49.95;;;5.40;99.90;;;;;;4943220;28;195461;-86
2022/03/23 03:47:18;;;;;;;92.40;53.58;;;5.40;99.90;;;;;;4986832;28;20056;-86
2022/03/23 03:49:44;;;;;;;90.85;52.83;;;5.30;99.90;;;;;;4957026;28;239166;-86
2022/03/23 03:52:10;;;;;;;98.93;55.63;;;5.30;99.90;;;;;;4976507;28;20515;-86
2022/03/23 03:54:36;;;;;;;93.53;56.10;;;5.30;99.90;;;;;;4956773;28;40748;-86
2022/03/23 03:57:03;;;;;;;88.75;53.05;;;5.30;99.90;;;;;;4981235;28;20058;-87
2022/03/23 03:59:29;;;;;;;88.10;52.25;;;5.30;99.90;;;;;;4954876;28;143790;-86
2022/03/23 04:01:55;;;;;;;89.40;53.20;;;5.30;99.90;;;;;;4955445;28;20058;-87
2022/03/23 04:04:21;;;;;;;82.45;49.35;;;5.30;99.90;;;;;;4940856;28;207420;-87
2022/03/23 04:06:47;;;;;;;82.65;49.97;;;5.30;99.90;;;;;;4989498;28;20053;-86
2022/03/23 04:09:14;;;;;;;88.05;53.03;;;5.20;99.90;;;;;;4988363;28;149641;-87
2022/03/23 04:11:40;;;;;;;81.80;49.40;;;5.10;99.90;;;;;;4966564;28;20050;-87
2022/03/23 04:14:06;;;;;;;73.40;48.50;;;5.10;99.90;;;;;;4965282;28;261478;-86
2022/03/23 04:16:32;;;;;;;78.85;48.35;;;5.10;99.90;;;;;;4942348;28;20050;-87
2022/03/23 04:18:58;;;;;;;91.68;55.70;;;5.00;99.90;;;;;;4983048;28;258960;-87
2022/03/23 04:21:24;;;;;;;88.80;52.08;;;5.00;99.90;;;;;;4959088;28;20053;-87
2022/03/23 04:23:50;;;;;;;83.93;50.67;;;5.00;99.90;;;;;;4981010;28;263023;-87
2022/03/23 04:26:16;;;;;;;91.57;53.00;;;5.00;99.90;;;;;;4951761;28;20480;-87
2022/03/23 04:28:42;;;;;;;91.85;53.95;;;5.00;99.90;;;;;;4983770;28;20053;-87
2022/03/23 04:31:09;;;;;;;87.07;53.80;;;5.00;99.90;;;;;;4942367;28;21665;-86
2022/03/23 04:33:35;;;;;;;90.70;53.10;;;4.90;99.90;;;;;;5006753;28;20038;-86
2022/03/23 04:36:02;;;;;;;97.70;55.97;;;4.90;99.90;;;;;;4927685;28;247505;-86
2022/03/23 04:38:28;;;;;;;80.85;51.25;;;4.90;99.90;;;;;;4982302;28;20561;-87
2022/03/23 04:40:54;;;;;;;77.80;49.08;;;4.90;99.90;;;;;;4950205;28;258069;-86
2022/03/23 04:43:20;;;;;;;85.68;50.22;;;4.90;99.90;;;;;;5000397;28;20077;-86
2022/03/23 04:45:47;;;;;;;85.55;51.75;;;4.80;99.90;;;;;;4969874;28;135307;-86
2022/03/23 04:48:13;;;;;;;88.25;51.03;;;4.80;99.90;;;;;;5011551;28;20072;-86
2022/03/23 04:50:40;;;;;;;82.18;50.15;;;4.70;99.90;;;;;;4984971;28;69443;-87
2022/03/23 04:53:06;;;;;;;93.55;53.72;;;4.70;99.90;;;;;;5005156;28;20073;-86
2022/03/23 04:55:33;;;;;;;94.18;56.72;;;4.70;99.90;;;;;;4955452;28;163278;-86
2022/03/23 04:58:00;;;;;;;92.93;53.97;;;4.70;99.90;;;;;;4998913;28;20053;-86
2022/03/23 05:00:27;;;;;;;95.60;55.63;;;4.70;99.90;;;;;;4951615;28;55377;-86
2022/03/23 05:02:54;;;;;;;104.00;58.55;;;4.70;99.90;;;;;;4986346;28;20044;-87
2022/03/23 05:05:20;;;;;;;102.90;57.65;;;4.70;99.90;;;;;;4930860;28;229096;-86
2022/03/23 05:07:46;;;;;;;103.82;58.97;;;4.70;99.90;;;;;;4975639;28;20065;-86
2022/03/23 05:10:13;;;;;;;102.90;60.10;;;4.70;99.90;;;;;;4957687;28;32333;-86
2022/03/23 05:12:41;;;;;;;110.45;63.08;;;4.70;99.90;;;;;;5003624;28;20496;-86
2022/03/23 05:15:08;;;;;;;94.25;56.50;;;4.70;99.90;;;;;;4940929;28;227712;-86
2022/03/23 05:17:38;;;;;;;97.88;58.88;;;4.70;99.90;;;;;;4990154;28;20069;-86
2022/03/23 05:20:05;;;;;;;100.15;57.75;;;4.60;99.90;;;;;;4975676;28;33053;-86
2022/03/23 05:22:37;;;;;;;90.75;55.55;;;4.60;99.90;;;;;;5006031;28;20076;-86
2022/03/23 05:25:04;;;;;;;;;;;4.60;99.90;;;;;;4978472;28;136853;-86
2022/03/23 05:27:38;;;;;;;86.15;51.30;;;4.60;99.90;;;;;;5004389;28;19943;-86
2022/03/23 05:30:07;;;;;;;99.35;55.42;;;4.50;99.90;;;;;;4950561;28;166409;-86
2022/03/23 05:32:34;;;;;;;94.30;54.15;;;4.50;99.90;;;;;;4984915;28;20057;-86
2022/03/23 05:35:01;;;;;;;97.75;56.33;;;4.50;99.90;;;;;;4942605;28;212721;-86
2022/03/23 05:37:27;;;;;;;91.18;52.95;;;4.50;99.90;;;;;;4985953;28;20065;-85
2022/03/23 05:39:53;;;;;;;94.55;55.35;;;4.50;99.90;;;;;;4952587;28;214911;-85
2022/03/23 05:42:20;;;;;;;87.03;51.53;;;4.50;99.90;;;;;;4976749;28;20459;-86
2022/03/23 05:44:46;;;;;;;92.53;53.08;;;4.50;99.90;;;;;;4961402;28;182975;-86
2022/03/23 05:47:12;;;;;;;95.30;54.88;;;4.50;99.90;;;;;;4979553;28;20065;-85
2022/03/23 05:49:38;;;;;;;78.28;49.97;;;4.40;99.90;;;;;;4942534;28;144764;-86
2022/03/23 05:52:04;;;;;;;88.32;53.33;;;4.50;99.90;;;;;;4980679;28;20058;-86
2022/03/23 05:54:31;;;;;;;79.90;49.75;;;4.40;99.90;;;;;;4953826;28;147792;-86
2022/03/23 05:56:59;;;;;;;91.93;53.30;;;4.50;99.90;;;;;;4968486;28;20061;-86
2022/03/23 05:59:25;;;;;;;87.40;51.58;;;4.50;99.90;;;;;;4940502;28;169647;-86
2022/03/23 06:01:51;;;;;;;90.60;53.88;;;4.50;99.90;;;;;;4967757;28;20053;-86
2022/03/23 06:04:17;;;;;;;103.90;59.58;;;4.50;99.90;;;;;;4968727;28;219574;-86
2022/03/23 06:06:43;;;;;;;87.25;53.50;;;4.60;99.90;;;;;;4945698;28;20125;-85
2022/03/23 06:09:09;;;;;;;80.28;49.03;;;4.60;99.90;;;;;;4969531;28;263857;-86
2022/03/23 06:11:35;;;;;;;78.20;49.90;;;4.60;99.90;;;;;;4953521;28;20053;-85
2022/03/23 06:14:02;;;;;;;86.90;51.80;;;4.60;99.90;;;;;;4980748;28;255270;-86
2022/03/23 06:16:28;;;;;;;84.38;52.10;;;4.70;99.90;;;;;;4934891;28;20041;-85
2022/03/23 06:18:55;;;;;;;83.00;51.55;;;4.70;99.90;;;;;;4978973;28;256293;-85
2022/03/23 06:21:21;;;;;;;97.40;55.15;;;4.80;99.90;;;;;;4958682;28;20050;-86
2022/03/23 06:23:48;;;;;;;84.68;50.90;;;4.80;99.90;;;;;;4979101;28;245582;-85
2022/03/23 06:26:14;;;;;;;88.10;52.38;;;4.90;99.90;;;;;;4940017;28;20061;-85
2022/03/23 06:28:40;;;;;;;93.95;55.83;;;4.90;99.90;;;;;;4980226;28;20061;-85
2022/03/23 06:31:06;;;;;;;89.47;54.95;;;5.00;99.90;;;;;;4938372;28;117682;-85
2022/03/23 06:33:32;;;;;;;98.65;57.65;;;5.00;99.90;;;;;;4984842;28;20077;-85
2022/03/23 06:35:58;;;;;;;98.28;58.67;;;5.00;99.90;;;;;;4949696;28;123646;-86
2022/03/23 06:38:25;;;;;;;91.57;55.13;;;5.10;99.90;;;;;;4992912;28;20061;-85
2022/03/23 06:40:51;;;;;;;99.63;59.58;;;5.20;99.90;;;;;;4946399;28;229210;-85
2022/03/23 06:43:17;;;;;;;109.82;62.30;;;5.20;99.90;;;;;;4980501;28;20073;-86
2022/03/23 06:45:44;;;;;;;104.13;59.60;;;5.30;99.90;;;;;;4942131;28;58961;-85
2022/03/23 06:48:10;;;;;;;103.13;62.20;;;5.40;99.90;;;;;;4996329;28;20062;-85
2022/03/23 06:50:36;;;;;;;105.25;61.70;;;5.50;99.90;;;;;;4930157;28;227990;-86
2022/03/23 06:53:04;;;;;;;103.10;61.58;;;5.60;99.90;;;;;;4976788;28;20050;-85
2022/03/23 06:55:30;;;;;;;101.88;59.70;;;5.60;99.90;;;;;;4950120;28;133316;-86
2022/03/23 06:57:56;;;;;;;97.10;58.15;;;5.70;99.90;;;;;;4992931;28;20368;-85
2022/03/23 07:00:22;;;;;;;90.60;58.10;;;5.70;99.90;;;;;;4959077;28;209949;-85
2022/03/23 07:02:50;;;;;;;96.43;60.28;;;5.80;99.90;;;;;;4973880;28;20061;-85
2022/03/23 07:05:18;;;;;;;92.85;57.38;;;5.90;99.90;;;;;;4923457;28;188727;-85
2022/03/23 07:10:37;;;;;;;94.35;57.83;;;6.00;99.90;;;;;;4941928;28;230851;-85
2022/03/23 07:13:04;;;;;;;94.13;57.83;;;6.10;99.90;;;;;;4984067;28;20077;-85
2022/03/23 07:15:30;;;;;;;85.97;54.22;;;6.20;99.90;;;;;;4941678;28;20042;-86
2022/03/23 07:17:56;;;;;;;90.32;55.45;;;6.30;99.90;;;;;;4979742;28;20049;-85
2022/03/23 07:20:24;;;;;;;87.97;54.78;;;6.40;99.90;;;;;;4965592;28;133773;-85
2022/03/23 07:22:50;;;;;;;82.97;52.72;;;6.40;99.90;;;;;;5002214;28;20045;-85
2022/03/23 07:25:16;;;;;;;82.45;52.65;;;6.50;99.90;;;;;;4980891;28;98287;-84
2022/03/23 07:27:42;;;;;;;81.43;52.80;;;6.60;99.90;;;;;;4985191;28;20061;-85
2022/03/23 07:30:09;;;;;;;81.50;54.25;;;6.70;99.90;;;;;;4959962;28;187375;-85
2022/03/23 07:32:36;;;;;;;82.07;53.13;;;6.80;99.90;;;;;;4996066;28;20057;-85
2022/03/23 07:35:02;;;;;;;77.07;50.80;;;6.90;99.90;;;;;;4938418;28;126609;-85
2022/03/23 07:37:29;;;;;;;75.88;52.42;;;7.00;99.90;;;;;;4974335;28;20049;-85
2022/03/23 07:39:55;;;;;;;78.82;53.25;;;7.20;99.90;;;;;;4955258;28;130489;-86
2022/03/23 07:42:21;;;;;;;78.53;52.65;;;7.30;99.90;;;;;;4980926;28;20056;-86
2022/03/23 07:44:47;;;;;;;73.88;51.30;;;7.50;99.90;;;;;;4937881;28;23794;-85
2022/03/23 07:47:15;;;;;;;72.80;50.10;;;7.90;99.90;;;;;;4982346;28;20050;-84
2022/03/23 07:49:41;;;;;;;69.70;47.70;;;8.50;99.90;;;;;;4951153;28;105878;-85
2022/03/23 07:52:09;;;;;;;66.40;46.97;;;9.10;99.90;;;;;;4974336;28;20069;-86
2022/03/23 07:54:36;;;;;;;62.38;45.88;;;9.90;99.90;;;;;;4942107;28;153256;-86
2022/03/23 07:57:02;;;;;;;61.20;44.75;;;10.60;99.90;;;;;;4969992;28;20057;-83
2022/03/23 07:59:29;;;;;;;58.92;43.20;;;11.30;99.90;;;;;;4945200;28;96508;-84
2022/03/23 08:01:55;;;;;;;57.47;41.47;;;12.00;99.90;;;;;;4986747;28;20435;-84
2022/03/23 08:04:21;;;;;;;51.22;38.88;;;12.50;99.90;;;;;;4955710;28;88232;-84
2022/03/23 08:06:47;;;;;;;48.03;37.30;;;13.20;99.90;;;;;;4987163;28;20049;-84
2022/03/23 08:09:13;;;;;;;45.45;34.33;;;13.70;99.90;;;;;;4987285;28;172600;-83
2022/03/23 08:11:39;;;;;;;42.92;32.03;;;14.10;99.90;;;;;;4954725;28;20049;-85
2022/03/23 08:14:05;;;;;;;42.10;31.50;;;14.50;99.90;;;;;;4982881;28;255578;-85
2022/03/23 08:16:32;;;;;;;43.15;31.67;;;14.80;99.90;;;;;;4967797;28;20041;-84
2022/03/23 08:18:58;;;;;;;47.28;32.35;;;15.20;99.90;;;;;;4968605;28;258231;-85
2022/03/23 08:21:24;;;;;;;42.70;31.65;;;15.60;99.90;;;;;;4954540;28;20077;-85
2022/03/23 08:23:50;;;;;;;43.25;32.45;;;16.00;99.90;;;;;;4991770;28;258525;-85
2022/03/23 08:26:18;;;;;;;36.80;29.65;;;16.40;99.90;;;;;;4971289;28;20046;-85
2022/03/23 08:28:45;;;;;;;38.50;30.77;;;16.70;99.90;;;;;;4983653;28;20050;-86
2022/03/23 08:31:12;;;;;;;39.35;30.35;;;17.00;99.90;;;;;;4921925;28;20038;-86
2022/03/23 08:33:39;;;;;;;38.05;29.50;;;17.20;98.10;;;;;;5001007;28;20503;-85
2022/03/23 08:36:07;;;;;;;35.15;28.33;;;17.40;97.70;;;;;;4969345;28;207645;-85
2022/03/23 08:38:33;;;;;;;36.13;29.60;;;17.80;95.20;;;;;;5004057;28;20046;-85
2022/03/23 08:41:00;;;;;;;36.97;27.50;;;18.10;95.40;;;;;;4973998;28;20060;-86
2022/03/23 08:43:26;;;;;;;34.60;27.63;;;18.40;92.80;;;;;;5003870;28;20042;-86
2022/03/23 08:45:55;;;;;;;39.28;27.98;;;18.70;91.40;;;;;;4941592;28;129424;-86
2022/03/23 08:48:21;;;;;;;33.92;27.67;;;19.00;89.30;;;;;;4992714;28;20073;-86
2022/03/23 08:50:51;;;;;;;39.10;27.42;;;19.40;85.40;;;;;;4954676;28;244110;-86
2022/03/23 08:53:18;;;;;;;34.83;26.88;;;19.70;80.50;;;;;;4982879;28;20515;-87
2022/03/23 08:55:45;;;;;;;35.47;27.38;;;20.00;75.50;;;;;;4952870;28;86593;-86
2022/03/23 08:58:11;;;;;;;34.95;26.90;;;20.20;71.20;;;;;;4977676;28;20069;-86
2022/03/23 09:00:40;;;;;;;30.83;26.15;;;20.40;67.90;;;;;;4953938;28;100591;-86
2022/03/23 09:03:06;;;;;;;32.63;25.85;;;20.60;67.10;;;;;;4992736;28;20060;-86
2022/03/23 09:05:32;;;;;;;31.70;25.25;;;20.90;64.50;;;;;;4931028;28;167114;-85
2022/03/23 09:08:01;;;;;;;31.98;25.42;;;21.20;63.60;;;;;;4978883;28;20057;-86
2022/03/23 09:10:27;;;;;;;31.67;25.23;;;21.50;60.00;;;;;;4949753;28;20530;-87
2022/03/23 09:12:54;;;;;;;32.08;24.98;;;21.50;56.80;;;;;;4995786;28;20050;-87
2022/03/23 09:15:20;;;;;;;27.00;23.88;;;21.60;55.70;;;;;;4965466;28;33505;-87
2022/03/23 09:17:47;;;;;;;29.45;24.23;;;21.80;54.00;;;;;;4982059;28;20046;-86
2022/03/23 09:20:14;;;;;;;29.17;24.42;;;21.90;52.40;;;;;;4947374;28;142124;-87
2022/03/23 09:22:41;;;;;;;30.42;24.60;;;22.10;51.00;;;;;;4998502;28;20423;-87
2022/03/23 09:25:09;;;;;;;29.38;24.00;;;22.40;50.50;;;;;;4957400;28;64458;-87
2022/03/23 09:27:38;;;;;;;29.27;24.17;;;22.70;50.30;;;;;;4993905;28;20049;-86
2022/03/23 09:30:08;;;;;;;27.23;23.17;;;22.90;48.50;;;;;;4942026;28;232845;-87
2022/03/23 09:32:34;;;;;;;28.75;22.05;;;23.10;47.10;;;;;;5005198;28;20054;-86
2022/03/23 09:35:00;;;;;;;27.33;22.27;;;23.20;46.80;;;;;;4942007;28;168975;-87
2022/03/23 09:40:13;;;;;;;24.65;20.85;;;23.60;45.70;;;;;;4960311;28;53590;-86
2022/03/23 09:42:40;;;;;;;27.33;21.45;;;23.80;43.80;;;;;;4987212;28;20057;-86
2022/03/23 09:45:07;;;;;;;23.30;19.55;;;23.70;42.20;;;;;;4951317;28;53701;-87
2022/03/23 09:47:33;;;;;;;24.27;20.02;;;23.60;42.10;;;;;;5004016;28;20061;-87
2022/03/23 09:50:00;;;;;;;25.80;18.70;;;23.90;41.90;;;;;;4955599;28;68644;-87
2022/03/23 09:52:27;;;;;;;22.80;17.13;;;24.30;41.00;;;;;;5006718;28;20068;-87
2022/03/23 09:54:53;;;;;;;21.38;17.20;;;24.30;40.00;;;;;;4963834;28;40190;-87
2022/03/23 09:57:19;;;;;;;21.40;17.63;;;24.40;39.00;;;;;;5005061;28;20052;-87
2022/03/23 09:59:45;;;;;;;24.17;17.77;;;24.70;38.00;;;;;;4952315;28;284386;-88
2022/03/23 10:02:59;;;;;;;22.98;16.45;;;24.80;37.70;;;;;;4985701;28;20050;-87
2022/03/23 10:05:46;;;;;;;19.48;15.25;;;25.20;37.20;;;;;;4881838;28;145252;-87
2022/03/23 10:08:28;;;;;;;19.05;14.52;;;25.50;37.20;;;;;;4965319;28;20054;-87
2022/03/23 10:11:28;;;;;;;19.02;14.45;;;25.60;33.80;;;;;;4893644;28;50756;-87
2022/03/23 10:14:25;;;;;;;18.48;14.35;;;25.90;32.30;;;;;;4952092;28;101197;-88
2022/03/23 10:17:28;;;;;;;21.10;14.00;;;25.90;32.20;;;;;;4918840;28;20546;-88
2022/03/23 10:19:55;;;;;;;17.35;14.07;;;25.90;32.40;;;;;;4897580;28;249223;-88
2022/03/23 10:22:26;;;;;;;21.08;13.70;;;25.90;33.10;;;;;;4947091;28;20074;-88
2022/03/23 10:24:53;;;;;;;20.08;13.60;;;26.00;32.40;;;;;;4930446;28;191010;-87
2022/03/23 10:27:22;;;;;;;18.27;13.23;;;25.90;31.30;;;;;;4966194;28;20049;-88
2022/03/23 10:29:54;;;;;;;20.33;12.18;;;25.90;31.30;;;;;;4951083;28;141371;-87
2022/03/23 10:32:23;;;;;;;18.20;12.13;;;26.10;31.40;;;;;;4967339;28;20069;-87
2022/03/23 10:34:52;;;;;;;19.13;11.98;;;26.30;31.20;;;;;;4905516;28;183926;-88
2022/03/23 10:37:30;;;;;;;16.52;12.23;;;26.30;31.40;;;;;;4977750;28;20610;-87
2022/03/23 10:40:00;;;;;;;19.33;11.90;;;26.50;30.60;;;;;;4956517;28;43414;-88
2022/03/23 10:42:30;;;;;;;20.70;11.48;;;26.70;30.60;;;;;;4984392;28;20507;-88
2022/03/23 10:45:08;;;;;;;;;;;27.10;30.50;;;;;;4974693;28;83886;-87
2022/03/23 10:47:35;;;;;;;17.85;11.25;;;27.30;28.80;;;;;;5010423;28;19936;-88
2022/03/23 10:50:23;;;;;;;19.98;11.32;;;27.30;30.00;;;;;;4967785;28;28876;-88
2022/03/23 10:52:49;;;;;;;19.25;11.00;;;27.40;29.00;;;;;;4989494;28;20051;-88
2022/03/23 10:55:16;;;;;;;18.48;10.65;;;27.60;30.50;;;;;;4943071;28;25870;-88
2022/03/23 10:57:58;;;;;;;17.60;10.80;;;27.90;29.40;;;;;;4986010;28;20057;-89
2022/03/23 11:00:38;;;;;;;17.73;11.65;;;27.90;28.70;;;;;;4939154;28;127781;-86
2022/03/23 11:03:07;;;;;;;16.63;11.35;;;27.90;29.10;;;;;;4998299;28;20434;-86
2022/03/23 11:05:43;;;;;;;19.33;11.45;;;28.00;29.50;;;;;;4929658;28;101037;-86
2022/03/23 11:08:15;;;;;;;20.85;11.52;;;28.30;29.10;;;;;;4986737;28;20049;-87
2022/03/23 11:16:38;;;;;;;23.77;10.75;;;28.50;29.00;;;;;;4980450;28;20048;-87
2022/03/23 11:19:26;;;;;;;22.08;10.50;;;28.50;29.40;;;;;;4976079;28;251375;-87
2022/03/23 11:21:58;;;;;;;24.58;10.23;;;28.70;28.90;;;;;;4947574;28;20041;-88
2022/03/23 11:24:30;;;;;;;18.77;10.68;;;28.90;28.50;;;;;;4980528;28;88558;-87
2022/03/23 11:26:56;;;;;;;20.77;10.45;;;28.80;28.10;;;;;;4996108;28;20072;-88
2022/03/23 11:29:23;;;;;;;27.30;9.07;;;29.00;28.40;;;;;;4960714;28;125416;-88
2022/03/23 11:31:53;;;;;;;28.20;9.55;;;29.20;28.30;;;;;;4984533;28;20062;-88
2022/03/23 11:34:20;;;;;;;;;;;29.00;27.80;;;;;;4976073;28;114353;-88
2022/03/23 11:36:52;;;;;;;21.27;10.20;;;28.60;27.20;;;;;;4972747;28;19917;-88
2022/03/23 11:39:20;;;;;;;22.80;10.55;;;28.60;28.70;;;;;;4974272;28;65170;-88
2022/03/23 11:41:48;;;;;;;20.10;10.00;;;28.90;27.90;;;;;;4976946;28;20780;-87
2022/03/23 11:44:16;;;;;;;25.95;10.15;;;29.20;28.20;;;;;;4985078;28;233014;-88
2022/03/23 11:46:44;;;;;;;24.60;9.30;;;29.20;28.80;;;;;;4940848;28;20496;-88
2022/03/23 11:49:20;;;;;;;21.05;9.10;;;29.40;28.80;;;;;;4987299;28;148910;-88
2022/03/23 11:52:08;;;;;;;19.55;8.52;;;29.60;28.60;;;;;;4942692;28;20439;-88
2022/03/23 11:58:14;;;;;;;22.50;8.77;;;30.20;27.80;;;;;;4992154;28;20430;-88
2022/03/23 12:00:47;;;;;;;23.25;9.60;;;30.20;27.80;;;;;;4912714;28;191926;-89
2022/03/23 12:03:16;;;;;;;24.42;9.35;;;30.20;27.90;;;;;;4975393;28;20423;-86
2022/03/23 12:05:52;;;;;;;18.98;8.73;;;30.10;27.50;;;;;;4888233;28;140669;-88
2022/03/23 12:08:48;;;;;;;24.95;9.43;;;29.50;26.90;;;;;;4957058;28;20050;-87
2022/03/23 12:11:45;;;;;;;26.77;7.47;;;29.20;27.80;;;;;;4903027;28;20397;-86
2022/03/23 12:14:24;;;;;;;23.70;7.78;;;29.20;27.10;;;;;;4973613;28;118265;-87
2022/03/23 12:16:51;;;;;;;25.95;7.05;;;29.30;27.50;;;;;;4945829;28;20026;-87
2022/03/23 12:19:31;;;;;;;22.73;6.60;;;28.90;26.80;;;;;;4948192;28;248425;-87
2022/03/23 12:22:05;;;;;;;20.55;6.05;;;29.10;27.70;;;;;;4936444;28;20515;-87
2022/03/23 12:24:58;;;;;;;26.15;6.78;;;29.10;27.90;;;;;;4929702;28;160391;-87
2022/03/23 12:27:32;;;;;;;21.40;6.55;;;29.40;27.30;;;;;;4980833;28;20062;-87
2022/03/23 12:30:01;;;;;;;23.23;5.78;;;29.50;28.10;;;;;;4912180;28;248010;-86
2022/03/23 12:32:37;;;;;;;24.13;5.78;;;29.60;28.40;;;;;;4964214;28;20104;-86
2022/03/23 12:35:05;;;;;;;24.88;7.03;;;29.70;27.30;;;;;;4945082;28;51524;-88
2022/03/23 12:37:42;;;;;;;22.13;7.47;;;29.70;27.50;;;;;;4992548;28;20065;-86
2022/03/23 12:40:12;;;;;;;20.98;7.20;;;30.00;27.20;;;;;;4955073;28;170444;-86
2022/03/23 12:42:43;;;;;;;23.67;8.43;;;30.00;27.80;;;;;;4973402;28;20129;-87
2022/03/23 12:45:15;;;;;;;19.17;8.32;;;30.00;27.40;;;;;;4945421;28;124477;-87
2022/03/23 12:47:54;;;;;;;28.70;8.48;;;30.10;27.50;;;;;;4990784;28;20057;-88
2022/03/23 12:59:20;;;;;;;26.08;7.65;;;28.80;27.90;;;;;;4985042;28;256630;-86
2022/03/23 13:01:53;;;;;;;18.00;7.03;;;28.90;26.50;;;;;;4954240;28;20076;-87
2022/03/23 13:04:40;;;;;;;26.48;7.20;;;29.10;27.70;;;;;;4959880;28;130994;-87
2022/03/23 13:07:30;;;;;;;24.92;7.50;;;29.60;27.40;;;;;;4980941;28;20062;-87
2022/03/23 13:10:13;;;;;;;21.98;6.63;;;30.00;26.60;;;;;;4954774;28;239304;-86